createdAt,value
2019-02-08T00:00:26.526Z,95.80
2019-02-08T00:02:53.160Z,96.00
2019-02-08T00:05:20.309Z,96.20
2019-02-08T00:07:46.792Z,96.30
2019-02-08T00:10:17.423Z,96.30
2019-02-08T00:12:43.924Z,96.40
2019-02-08T00:15:13.114Z,96.30
2019-02-08T00:17:39.781Z,96.40
2019-02-08T00:20:09.879Z,96.20
2019-02-08T00:22:36.453Z,95.80
2019-02-08T00:25:06.165Z,96.10
2019-02-08T00:27:32.523Z,96.10
2019-02-08T00:29:59.228Z,95.90
2019-02-08T00:32:25.502Z,96.00
2019-02-08T00:34:52.229Z,96.10
2019-02-08T00:37:18.816Z,96.20
2019-02-08T00:39:45.461Z,96.10
2019-02-08T00:42:11.839Z,96.00
2019-02-08T00:44:38.325Z,95.90
2019-02-08T00:47:04.821Z,96.00
2019-02-08T00:49:31.364Z,95.90
2019-02-08T00:51:57.771Z,95.70
2019-02-08T00:54:24.270Z,95.40
2019-02-08T00:56:50.893Z,95.50
2019-02-08T00:59:17.402Z,95.60
2019-02-08T01:01:43.901Z,95.70
2019-02-08T01:04:10.419Z,95.70
2019-02-08T01:06:37.029Z,95.80
2019-02-08T01:09:07.061Z,95.60
2019-02-08T01:11:33.485Z,95.50
2019-02-08T01:14:00.097Z,95.50
2019-02-08T01:16:27.076Z,95.60
2019-02-08T01:18:53.576Z,95.60
2019-02-08T01:21:20.064Z,95.60
2019-02-08T01:23:46.589Z,95.70
2019-02-08T01:26:13.198Z,95.80
2019-02-08T01:28:39.669Z,95.50
2019-02-08T01:31:06.171Z,95.40
2019-02-08T01:33:32.720Z,95.00
2019-02-08T01:35:59.117Z,94.90
2019-02-08T01:38:25.653Z,94.90
2019-02-08T01:40:52.146Z,95.10
2019-02-08T01:43:18.660Z,95.20
2019-02-08T01:45:45.209Z,96.00
2019-02-08T01:48:11.871Z,96.60
2019-02-08T01:50:38.398Z,96.80
2019-02-08T01:53:05.308Z,96.90
2019-02-08T01:55:31.849Z,96.80
2019-02-08T01:57:58.324Z,96.60
2019-02-08T02:00:36.893Z,96.60
2019-02-08T02:03:04.595Z,96.70
2019-02-08T02:05:31.146Z,96.60
2019-02-08T02:07:57.884Z,96.80
2019-02-08T02:10:29.403Z,96.80
2019-02-08T02:12:56.352Z,96.90
2019-02-08T02:15:22.861Z,96.90
2019-02-08T02:17:49.366Z,96.60
2019-02-08T02:20:21.628Z,96.50
2019-02-08T02:22:48.021Z,96.50
2019-02-08T02:25:14.580Z,96.60
2019-02-08T02:27:41.097Z,96.50
2019-02-08T02:30:11.309Z,96.40
2019-02-08T02:32:37.818Z,96.30
2019-02-08T02:35:08.040Z,96.40
2019-02-08T02:37:34.525Z,96.30
2019-02-08T02:40:01.026Z,96.30
2019-02-08T02:42:27.518Z,96.50
2019-02-08T02:44:54.026Z,96.40
2019-02-08T02:47:20.485Z,96.50
2019-02-08T02:49:46.873Z,96.50
2019-02-08T02:52:13.304Z,96.40
2019-02-08T02:54:39.722Z,96.30
2019-02-08T02:57:06.202Z,96.20
2019-02-08T02:59:32.818Z,96.30
2019-02-08T03:01:59.415Z,96.50
2019-02-08T03:04:26.026Z,96.50
2019-02-08T03:06:52.497Z,96.50
2019-02-08T03:09:20.001Z,96.20
2019-02-08T03:11:46.436Z,96.00
2019-02-08T03:14:12.885Z,96.10
2019-02-08T03:16:39.400Z,96.10
2019-02-08T03:19:05.906Z,96.10
2019-02-08T03:21:32.162Z,96.50
2019-02-08T03:23:58.677Z,96.80
2019-02-08T03:26:25.342Z,97.00
2019-02-08T03:28:51.805Z,97.20
2019-02-08T03:31:18.297Z,97.10
2019-02-08T03:33:44.708Z,97.00
2019-02-08T03:36:11.237Z,97.00
2019-02-08T03:38:37.524Z,96.80
2019-02-08T03:41:04.015Z,96.70
2019-02-08T03:43:30.482Z,96.60
2019-02-08T03:45:56.957Z,96.70
2019-02-08T03:48:23.529Z,96.90
2019-02-08T03:50:50.042Z,96.90
2019-02-08T03:53:16.579Z,96.90
2019-02-08T03:55:43.123Z,97.20
2019-02-08T03:58:09.612Z,97.00
2019-02-08T04:00:38.265Z,97.00
2019-02-08T04:03:04.767Z,97.20
2019-02-08T04:05:31.241Z,96.90
2019-02-08T04:07:57.913Z,96.80
2019-02-08T04:10:24.539Z,96.70
2019-02-08T04:12:51.111Z,96.70
2019-02-08T04:15:22.100Z,96.50
2019-02-08T04:17:48.553Z,96.60
2019-02-08T04:20:16.561Z,96.60
2019-02-08T04:22:43.142Z,96.30
2019-02-08T04:25:12.398Z,96.60
2019-02-08T04:27:39.085Z,96.40
2019-02-08T04:30:09.167Z,96.50
2019-02-08T04:32:35.627Z,96.40
2019-02-08T04:35:02.096Z,96.50
2019-02-08T04:37:28.527Z,96.60
2019-02-08T04:39:54.826Z,96.50
2019-02-08T04:42:21.391Z,96.40
2019-02-08T04:44:47.756Z,96.40
2019-02-08T04:47:14.131Z,96.30
2019-02-08T04:49:40.631Z,96.30
2019-02-08T04:52:06.999Z,96.10
2019-02-08T04:54:38.436Z,96.10
2019-02-08T04:57:01.669Z,96.20
2019-02-08T04:59:28.312Z,96.10
2019-02-08T05:01:54.780Z,96.10
2019-02-08T05:04:21.286Z,95.90
2019-02-08T05:06:47.855Z,96.10
2019-02-08T05:09:14.363Z,96.10
2019-02-08T05:11:40.747Z,96.30
2019-02-08T05:14:07.508Z,96.30
2019-02-08T05:16:34.063Z,96.20
2019-02-08T05:19:00.424Z,96.20
2019-02-08T05:21:26.986Z,96.20
2019-02-08T05:23:53.458Z,96.20
2019-02-08T05:26:19.950Z,96.40
2019-02-08T05:28:46.454Z,96.10
2019-02-08T05:31:12.850Z,95.90
2019-02-08T05:33:39.366Z,95.60
2019-02-08T05:36:05.816Z,95.20
2019-02-08T05:38:32.405Z,95.70
2019-02-08T05:40:58.791Z,95.80
2019-02-08T05:43:25.352Z,96.10
2019-02-08T05:45:51.962Z,95.90
2019-02-08T05:48:18.595Z,95.70
2019-02-08T05:50:45.035Z,95.30
2019-02-08T05:53:11.569Z,95.20
2019-02-08T05:55:38.280Z,95.50
2019-02-08T05:58:04.952Z,95.40
2019-02-08T06:00:42.905Z,95.50
2019-02-08T06:03:09.292Z,95.60
2019-02-08T06:05:36.485Z,95.30
2019-02-08T06:08:03.704Z,95.30
2019-02-08T06:10:30.176Z,95.40
2019-02-08T06:12:56.669Z,95.20
2019-02-08T06:15:24.263Z,95.60
2019-02-08T06:17:50.782Z,95.30
2019-02-08T06:20:21.561Z,95.10
2019-02-08T06:22:48.615Z,95.00
2019-02-08T06:25:16.933Z,94.90
2019-02-08T06:27:43.418Z,94.80
2019-02-08T06:30:13.485Z,94.50
2019-02-08T06:32:40.012Z,95.00
2019-02-08T06:35:07.595Z,95.40
2019-02-08T06:37:34.080Z,95.50
2019-02-08T06:40:00.580Z,95.10
2019-02-08T06:42:27.051Z,95.20
2019-02-08T06:44:53.545Z,95.60
2019-02-08T06:47:19.922Z,95.80
2019-02-08T06:49:46.324Z,95.90
2019-02-08T06:52:12.827Z,96.80
2019-02-08T06:54:39.361Z,96.90
2019-02-08T06:57:07.766Z,97.00
2019-02-08T06:59:36.137Z,96.50
2019-02-08T07:02:16.663Z,96.20
2019-02-08T07:04:47.612Z,96.10
2019-02-08T07:07:27.921Z,95.70
2019-02-08T07:09:56.337Z,95.50
2019-02-08T07:12:27.492Z,95.70
2019-02-08T07:14:55.710Z,95.20
2019-02-08T07:17:26.592Z,95.30
2019-02-08T07:20:03.910Z,95.10
2019-02-08T07:22:32.348Z,95.20
2019-02-08T07:25:09.426Z,95.40
2019-02-08T07:27:46.576Z,95.40
2019-02-08T07:30:25.135Z,95.30
2019-02-08T07:32:59.352Z,95.10
2019-02-08T07:35:27.784Z,95.10
2019-02-08T07:38:00.190Z,95.00
2019-02-08T07:40:38.415Z,95.00
2019-02-08T07:43:08.958Z,95.40
2019-02-08T07:45:55.687Z,95.50
2019-02-08T07:48:41.580Z,95.60
2019-02-08T07:51:21.978Z,95.70
2019-02-08T07:54:02.401Z,96.00
2019-02-08T07:56:36.843Z,96.10
2019-02-08T07:59:11.183Z,96.10
2019-02-08T08:01:42.151Z,96.60
2019-02-08T08:04:13.349Z,97.10
2019-02-08T08:06:45.112Z,97.30
2019-02-08T08:09:29.618Z,97.80
2019-02-08T08:11:58.219Z,98.30
2019-02-08T08:14:26.619Z,98.40
2019-02-08T08:17:03.834Z,98.20
2019-02-08T08:19:49.117Z,98.00
2019-02-08T08:22:26.505Z,97.80
2019-02-08T08:24:57.939Z,97.50
2019-02-08T08:27:26.414Z,97.00
2019-02-08T08:30:10.447Z,96.90
2019-02-08T08:32:40.750Z,96.50
2019-02-08T08:35:13.624Z,96.30
2019-02-08T08:37:49.848Z,96.00
2019-02-08T08:40:22.664Z,95.80
2019-02-08T08:42:58.720Z,95.80
2019-02-08T08:45:37.763Z,95.40
2019-02-08T08:48:27.833Z,95.40
2019-02-08T08:51:14.527Z,95.50
2019-02-08T08:54:02.120Z,95.10
2019-02-08T08:56:41.180Z,95.20
2019-02-08T08:59:40.470Z,95.00
2019-02-08T09:02:36.277Z,94.90
2019-02-08T09:05:29.013Z,94.90
2019-02-08T09:08:11.331Z,94.50
2019-02-08T09:10:47.357Z,94.50
2019-02-08T09:13:23.831Z,93.40
2019-02-08T09:16:19.789Z,93.30
2019-02-08T09:19:24.418Z,93.10
2019-02-08T09:21:57.727Z,92.80
2019-02-08T09:24:30.528Z,91.90
2019-02-08T09:27:17.404Z,91.80
2019-02-08T09:30:04.454Z,91.30
2019-02-08T09:32:40.892Z,91.10
2019-02-08T09:35:36.936Z,90.60
2019-02-08T09:38:25.399Z,90.40
2019-02-08T09:41:21.292Z,90.00
2019-02-08T09:44:06.462Z,89.60
2019-02-08T09:46:53.256Z,89.30
2019-02-08T09:49:56.879Z,88.80
2019-02-08T09:52:42.265Z,87.00
2019-02-08T09:55:32.205Z,86.50
2019-02-08T09:58:10.781Z,86.40
2019-02-08T10:01:06.733Z,85.60
2019-02-08T10:03:55.348Z,86.10
2019-02-08T10:06:31.375Z,85.60
2019-02-08T10:09:29.199Z,85.40
2019-02-08T10:12:31.230Z,84.60
2019-02-08T10:15:25.181Z,84.50
2019-02-08T10:18:22.142Z,79.60
2019-02-08T10:21:07.375Z,79.30
2019-02-08T10:23:40.420Z,79.30
2019-02-08T10:26:38.138Z,79.90
2019-02-08T10:29:35.774Z,78.30
2019-02-08T10:32:34.594Z,77.20
2019-02-08T10:35:13.119Z,77.90
2019-02-08T10:37:55.637Z,77.80
2019-02-08T10:40:45.285Z,76.40
2019-02-08T10:43:30.483Z,76.00
2019-02-08T10:46:26.442Z,73.70
2019-02-08T10:49:12.839Z,74.10
2019-02-08T10:51:52.105Z,72.90
2019-02-08T10:54:31.463Z,72.00
2019-02-08T10:57:21.351Z,73.60
2019-02-08T10:59:57.731Z,72.80
2019-02-08T11:02:36.920Z,71.20
2019-02-08T11:05:13.135Z,73.50
2019-02-08T11:08:16.764Z,69.70
2019-02-08T11:11:03.869Z,70.10
2019-02-08T11:13:43.126Z,73.10
2019-02-08T11:16:28.369Z,70.80
2019-02-08T11:19:16.987Z,71.70
2019-02-08T11:21:44.029Z,70.30
2019-02-08T11:24:10.530Z,68.80
2019-02-08T11:26:37.250Z,67.10
2019-02-08T11:29:04.313Z,68.90
2019-02-08T11:31:30.907Z,68.50
2019-02-08T11:33:57.448Z,67.30
2019-02-08T11:36:23.992Z,70.00
2019-02-08T11:38:50.460Z,67.40
2019-02-08T11:41:17.088Z,68.20
2019-02-08T11:43:43.565Z,68.30
2019-02-08T11:46:10.173Z,65.90
2019-02-08T11:48:36.675Z,67.40
2019-02-08T11:51:03.236Z,65.60
2019-02-08T11:53:29.651Z,65.80
2019-02-08T11:55:56.146Z,66.30
2019-02-08T11:58:22.556Z,67.50
2019-02-08T12:00:50.950Z,67.30
2019-02-08T12:03:17.264Z,67.70
2019-02-08T12:05:43.866Z,66.80
2019-02-08T12:08:10.451Z,65.60
2019-02-08T12:10:36.941Z,65.20
2019-02-08T12:13:03.460Z,65.00
2019-02-08T12:15:30.012Z,65.60
2019-02-08T12:17:56.512Z,64.10
2019-02-08T12:20:23.043Z,65.50
2019-02-08T12:22:49.458Z,64.10
2019-02-08T12:25:15.954Z,65.00
2019-02-08T12:27:42.494Z,65.60
2019-02-08T12:30:21.463Z,65.50
2019-02-08T12:32:47.983Z,64.50
2019-02-08T12:35:14.450Z,64.40
2019-02-08T12:37:40.957Z,65.00
2019-02-08T12:40:08.647Z,64.60
2019-02-08T12:42:35.070Z,63.30
2019-02-08T12:45:01.757Z,63.90
2019-02-08T12:47:28.245Z,64.90
2019-02-08T12:49:54.646Z,62.90
2019-02-08T12:52:21.001Z,62.90
2019-02-08T12:54:47.623Z,63.00
2019-02-08T12:57:14.095Z,62.50
2019-02-08T12:59:40.509Z,63.50
2019-02-08T13:02:07.087Z,62.90
2019-02-08T13:04:33.575Z,63.70
2019-02-08T13:07:00.012Z,62.20
2019-02-08T13:09:26.400Z,62.00
2019-02-08T13:11:52.972Z,61.90
2019-02-08T13:14:19.354Z,61.60
2019-02-08T13:16:45.832Z,61.20
2019-02-08T13:19:12.251Z,62.00
2019-02-08T13:21:38.785Z,59.20
2019-02-08T13:24:05.361Z,60.20
2019-02-08T13:26:31.830Z,60.00
2019-02-08T13:28:58.243Z,61.80
2019-02-08T13:31:24.612Z,60.50
2019-02-08T13:33:51.055Z,62.00
2019-02-08T13:36:17.565Z,60.90
2019-02-08T13:38:44.119Z,61.50
2019-02-08T13:41:10.717Z,62.80
2019-02-08T13:43:37.322Z,61.70
2019-02-08T13:46:03.848Z,62.80
2019-02-08T13:48:30.372Z,61.60
2019-02-08T13:50:56.877Z,60.50
2019-02-08T13:53:25.043Z,60.60
2019-02-08T13:55:51.597Z,59.50
2019-02-08T13:58:18.085Z,60.00
2019-02-08T14:00:44.560Z,57.90
2019-02-08T14:03:11.106Z,58.30
2019-02-08T14:05:37.689Z,59.80
2019-02-08T14:08:04.396Z,60.50
2019-02-08T14:10:31.051Z,60.60
2019-02-08T14:12:57.681Z,58.90
2019-02-08T14:15:25.126Z,60.10
2019-02-08T14:17:51.637Z,59.30
2019-02-08T14:20:26.351Z,58.60
2019-02-08T14:22:52.931Z,59.20
2019-02-08T14:25:19.651Z,58.70
2019-02-08T14:27:46.322Z,57.80
2019-02-08T14:30:17.921Z,58.90
2019-02-08T14:32:44.534Z,57.30
2019-02-08T14:35:13.099Z,58.80
2019-02-08T14:37:39.533Z,58.70
2019-02-08T14:40:18.670Z,58.20
2019-02-08T14:42:45.135Z,57.60
2019-02-08T14:45:12.344Z,58.40
2019-02-08T14:47:38.755Z,58.30
2019-02-08T14:50:11.864Z,58.00
2019-02-08T14:52:38.367Z,58.00
2019-02-08T14:55:07.451Z,58.10
2019-02-08T14:57:34.053Z,58.90
2019-02-08T15:00:00.586Z,59.20
2019-02-08T15:02:27.073Z,58.90
2019-02-08T15:04:53.578Z,59.60
2019-02-08T15:07:20.176Z,59.50
2019-02-08T15:09:46.584Z,60.00
2019-02-08T15:12:13.154Z,60.40
2019-02-08T15:14:39.567Z,60.40
2019-02-08T15:17:05.991Z,59.80
2019-02-08T15:19:32.456Z,60.20
2019-02-08T15:21:59.510Z,60.10
2019-02-08T15:24:25.919Z,59.90
2019-02-08T15:26:52.372Z,60.50
2019-02-08T15:29:18.890Z,60.90
2019-02-08T15:31:45.263Z,61.20
2019-02-08T15:34:11.663Z,61.70
2019-02-08T15:36:38.031Z,61.00
2019-02-08T15:39:08.059Z,61.50
2019-02-08T15:41:34.423Z,62.00
2019-02-08T15:44:00.837Z,62.10
2019-02-08T15:46:27.229Z,62.70
2019-02-08T15:48:53.649Z,62.00
2019-02-08T15:51:20.257Z,62.90
2019-02-08T15:53:46.872Z,62.30
2019-02-08T15:56:13.429Z,63.00
2019-02-08T15:58:39.951Z,63.30
2019-02-08T16:01:09.668Z,62.90
2019-02-08T16:03:36.268Z,63.20
2019-02-08T16:06:03.571Z,63.80
2019-02-08T16:08:30.081Z,63.70
2019-02-08T16:10:56.708Z,64.20
2019-02-08T16:13:23.080Z,64.70
2019-02-08T16:15:49.577Z,65.00
2019-02-08T16:18:16.270Z,65.60
2019-02-08T16:20:42.824Z,65.80
2019-02-08T16:23:09.344Z,65.50
2019-02-08T16:25:35.847Z,65.20
2019-02-08T16:28:02.322Z,64.90
2019-02-08T16:30:33.588Z,65.40
2019-02-08T16:33:00.165Z,65.60
2019-02-08T16:35:26.823Z,66.00
2019-02-08T16:37:53.355Z,66.40
2019-02-08T16:40:22.328Z,66.20
2019-02-08T16:42:48.842Z,66.30
2019-02-08T16:45:18.366Z,66.40
2019-02-08T16:47:45.039Z,65.70
2019-02-08T16:50:15.208Z,66.30
2019-02-08T16:52:41.726Z,66.20
2019-02-08T16:55:10.095Z,66.40
2019-02-08T16:57:36.772Z,66.30
2019-02-08T17:00:06.954Z,66.60
2019-02-08T17:02:33.585Z,66.30
2019-02-08T17:05:00.197Z,66.90
2019-02-08T17:07:28.820Z,66.90
2019-02-08T17:09:55.206Z,67.00
2019-02-08T17:12:21.803Z,67.20
2019-02-08T17:14:48.327Z,67.50
2019-02-08T17:17:15.080Z,67.40
2019-02-08T17:19:41.561Z,67.20
2019-02-08T17:22:08.186Z,66.80
2019-02-08T17:24:34.673Z,66.40
2019-02-08T17:27:01.061Z,66.30
2019-02-08T17:29:27.582Z,66.00
2019-02-08T17:31:54.123Z,66.20
2019-02-08T17:34:20.637Z,66.10
2019-02-08T17:36:47.167Z,66.40
2019-02-08T17:39:14.727Z,66.50
2019-02-08T17:41:41.206Z,66.50
2019-02-08T17:44:07.735Z,66.60
2019-02-08T17:46:34.347Z,66.70
2019-02-08T17:49:00.757Z,66.80
2019-02-08T17:51:27.133Z,67.00
2019-02-08T17:53:53.688Z,67.30
2019-02-08T17:56:20.179Z,67.60
2019-02-08T17:58:46.819Z,67.60
2019-02-08T18:01:13.401Z,67.40
2019-02-08T18:03:39.958Z,67.10
2019-02-08T18:06:06.675Z,67.60
2019-02-08T18:08:33.271Z,67.60
2019-02-08T18:10:59.703Z,68.20
2019-02-08T18:13:26.249Z,68.60
2019-02-08T18:15:52.639Z,68.90
2019-02-08T18:18:19.102Z,68.50
2019-02-08T18:20:48.963Z,68.90
2019-02-08T18:23:15.439Z,68.50
2019-02-08T18:25:41.947Z,67.90
2019-02-08T18:28:10.956Z,67.80
2019-02-08T18:30:36.875Z,67.40
2019-02-08T18:33:03.656Z,68.00
2019-02-08T18:35:30.027Z,68.50
2019-02-08T18:37:56.622Z,68.30
2019-02-08T18:40:23.932Z,68.10
2019-02-08T18:42:50.884Z,68.40
2019-02-08T18:45:23.315Z,68.40
2019-02-08T18:47:49.833Z,68.70
2019-02-08T18:50:38.871Z,68.90
2019-02-08T18:53:05.962Z,69.30
2019-02-08T18:55:32.432Z,69.70
2019-02-08T18:57:59.016Z,69.50
2019-02-08T19:00:39.688Z,69.60
2019-02-08T19:03:01.965Z,69.90
2019-02-08T19:05:28.724Z,69.70
2019-02-08T19:07:55.203Z,70.10
2019-02-08T19:10:22.490Z,70.00
2019-02-08T19:12:49.378Z,70.20
2019-02-08T19:15:18.678Z,71.00
2019-02-08T19:17:45.179Z,70.40
2019-02-08T19:20:14.184Z,70.50
2019-02-08T19:22:40.683Z,70.40
2019-02-08T19:25:10.520Z,71.00
2019-02-08T19:27:37.040Z,71.20
2019-02-08T19:30:12.808Z,71.50
2019-02-08T19:32:39.386Z,71.80
2019-02-08T19:35:09.103Z,72.10
2019-02-08T19:37:35.583Z,72.10
2019-02-08T19:40:11.702Z,72.00
2019-02-08T19:42:38.250Z,72.50
2019-02-08T19:45:08.603Z,72.90
2019-02-08T19:47:35.188Z,72.90
2019-02-08T19:50:03.549Z,72.70
2019-02-08T19:52:30.035Z,72.70
2019-02-08T19:54:56.461Z,73.20
2019-02-08T19:57:22.874Z,73.40
2019-02-08T19:59:49.443Z,73.40
2019-02-08T20:02:15.984Z,73.30
2019-02-08T20:04:42.439Z,73.90
2019-02-08T20:07:08.924Z,73.80
2019-02-08T20:09:35.283Z,73.50
2019-02-08T20:12:01.824Z,74.20
2019-02-08T20:14:28.401Z,74.50
2019-02-08T20:16:54.796Z,74.30
2019-02-08T20:19:21.425Z,74.20
2019-02-08T20:21:47.895Z,74.50
2019-02-08T20:24:14.553Z,75.20
2019-02-08T20:26:40.951Z,75.40
2019-02-08T20:29:07.629Z,75.70
2019-02-08T20:31:34.135Z,75.70
2019-02-08T20:34:00.688Z,76.10
2019-02-08T20:36:27.186Z,76.00
2019-02-08T20:38:53.636Z,76.40
2019-02-08T20:41:20.099Z,76.20
2019-02-08T20:43:46.530Z,76.40
2019-02-08T20:46:13.138Z,77.00
2019-02-08T20:48:39.623Z,76.70
2019-02-08T20:51:06.411Z,77.30
2019-02-08T20:53:35.034Z,77.30
2019-02-08T20:56:01.683Z,78.00
2019-02-08T20:58:28.375Z,77.80
2019-02-08T21:00:55.020Z,77.70
2019-02-08T21:03:22.364Z,77.70
2019-02-08T21:05:49.157Z,78.20
2019-02-08T21:08:16.219Z,79.00
2019-02-08T21:10:42.726Z,78.80
2019-02-08T21:13:10.041Z,79.20
2019-02-08T21:15:36.614Z,78.90
2019-02-08T21:18:04.550Z,79.30
2019-02-08T21:20:31.123Z,80.10
2019-02-08T21:22:57.647Z,79.70
2019-02-08T21:25:32.730Z,78.90
2019-02-08T21:27:59.190Z,78.70
2019-02-08T21:30:26.083Z,78.80
2019-02-08T21:32:52.588Z,79.30
2019-02-08T21:35:19.304Z,79.50
2019-02-08T21:37:46.493Z,79.50
2019-02-08T21:40:17.602Z,80.30
2019-02-08T21:42:44.155Z,80.30
2019-02-08T21:45:13.945Z,80.60
2019-02-08T21:47:40.418Z,80.90
2019-02-08T21:50:09.989Z,81.00
2019-02-08T21:52:36.401Z,81.40
2019-02-08T21:55:05.561Z,81.10
2019-02-08T21:57:32.047Z,80.60
2019-02-08T21:59:58.714Z,80.40
2019-02-08T22:02:25.151Z,80.20
2019-02-08T22:04:52.147Z,80.20
2019-02-08T22:07:18.614Z,80.20
2019-02-08T22:09:44.974Z,80.20
2019-02-08T22:12:11.534Z,80.00
2019-02-08T22:14:37.903Z,80.30
2019-02-08T22:17:04.549Z,80.80
2019-02-08T22:19:31.055Z,80.80
2019-02-08T22:21:57.576Z,81.20
2019-02-08T22:24:24.072Z,81.10
2019-02-08T22:26:50.588Z,81.00
2019-02-08T22:29:16.992Z,80.70
2019-02-08T22:31:43.624Z,82.00
2019-02-08T22:34:10.027Z,82.60
2019-02-08T22:36:36.582Z,82.70
2019-02-08T22:39:06.128Z,82.20
2019-02-08T22:41:32.633Z,81.90
2019-02-08T22:43:59.213Z,81.70
2019-02-08T22:46:25.781Z,81.90
2019-02-08T22:48:52.374Z,82.90
2019-02-08T22:51:18.773Z,82.90
2019-02-08T22:53:45.220Z,82.20
2019-02-08T22:56:11.556Z,82.80
2019-02-08T22:58:38.986Z,83.40
2019-02-08T23:01:11.919Z,84.00
2019-02-08T23:03:38.307Z,82.70
2019-02-08T23:06:05.109Z,82.30
2019-02-08T23:08:31.582Z,82.60
2019-02-08T23:10:58.275Z,82.60
2019-02-08T23:13:24.967Z,82.50
2019-02-08T23:15:51.558Z,81.60
2019-02-08T23:18:18.036Z,80.60
2019-02-08T23:20:44.781Z,80.90
2019-02-08T23:23:11.243Z,80.30
2019-02-08T23:25:37.970Z,80.00
2019-02-08T23:28:04.597Z,78.90
2019-02-08T23:30:31.370Z,79.00
2019-02-08T23:32:57.814Z,78.80
2019-02-08T23:35:24.825Z,78.50
2019-02-08T23:37:51.289Z,78.50
2019-02-08T23:40:18.558Z,79.00
2019-02-08T23:42:45.303Z,79.30
2019-02-08T23:45:15.527Z,78.80
2019-02-08T23:47:42.090Z,78.80
2019-02-08T23:50:13.380Z,78.80
2019-02-08T23:52:40.076Z,78.80
2019-02-08T23:55:08.380Z,78.50
2019-02-08T23:57:34.977Z,78.40
